createdAt,value
2017-08-09T00:01:00.257Z,17
2017-08-09T00:02:09.789Z,16.88
2017-08-09T00:03:19.318Z,16.93
2017-08-09T00:04:28.530Z,16.85
2017-08-09T00:05:37.734Z,16.89
2017-08-09T00:06:47.096Z,16.93
2017-08-09T00:07:56.309Z,16.89
2017-08-09T00:09:05.842Z,16.91
2017-08-09T00:10:15.045Z,16.88
2017-08-09T00:11:23.929Z,16.98
2017-08-09T00:12:33.837Z,16.94
2017-08-09T00:13:43.684Z,16.97
2017-08-09T00:14:52.892Z,16.96
2017-08-09T00:16:02.747Z,16.88
2017-08-09T00:17:12.277Z,16.96
2017-08-09T00:18:21.318Z,16.94
2017-08-09T00:19:30.529Z,17
2017-08-09T00:20:39.411Z,16.89
2017-08-09T00:21:48.616Z,16.93
2017-08-09T00:22:58.146Z,16.93
2017-08-09T00:24:07.985Z,16.96
2017-08-09T00:25:17.839Z,16.88
2017-08-09T00:26:27.372Z,16.83
2017-08-09T00:27:37.221Z,16.83
2017-08-09T00:28:46.429Z,16.85
2017-08-09T00:29:55.317Z,16.89
2017-08-09T00:31:04.520Z,16.86
2017-08-09T00:32:14.373Z,16.78
2017-08-09T00:33:24.255Z,16.76
2017-08-09T00:34:33.136Z,16.86
2017-08-09T00:35:42.506Z,16.73
2017-08-09T00:36:51.713Z,16.75
2017-08-09T00:38:01.248Z,16.73
2017-08-09T00:39:10.450Z,16.66
2017-08-09T00:40:19.652Z,16.66
2017-08-09T00:41:28.637Z,16.78
2017-08-09T00:42:38.165Z,16.61
2017-08-09T00:43:47.691Z,16.68
2017-08-09T00:44:56.573Z,16.48
2017-08-09T00:46:05.782Z,16.48
2017-08-09T00:47:15.686Z,16.7
2017-08-09T00:48:25.211Z,16.48
2017-08-09T00:49:34.744Z,16.5
2017-08-09T00:50:44.276Z,16.43
2017-08-09T00:51:53.158Z,16.46
2017-08-09T00:53:02.287Z,16.43
2017-08-09T00:54:11.169Z,16.41
2017-08-09T00:55:20.387Z,16.31
2017-08-09T00:56:29.591Z,16.56
2017-08-09T00:57:38.481Z,16.41
2017-08-09T00:58:47.841Z,16.39
2017-08-09T00:59:57.051Z,16.39
2017-08-09T01:01:06.907Z,16.25
2017-08-09T01:02:16.437Z,16.28
2017-08-09T01:03:25.964Z,16.34
2017-08-09T01:04:35.797Z,16.27
2017-08-09T01:05:44.681Z,16.23
2017-08-09T01:06:53.563Z,16.27
2017-08-09T01:08:03.417Z,16.21
2017-08-09T01:09:12.301Z,16.12
2017-08-09T01:10:22.026Z,16.09
2017-08-09T01:11:30.906Z,16.14
2017-08-09T01:12:40.111Z,16.11
2017-08-09T01:13:49.643Z,16.01
2017-08-09T01:14:59.194Z,16.08
2017-08-09T01:16:08.869Z,15.97
2017-08-09T01:17:18.724Z,15.89
2017-08-09T01:18:27.936Z,16.01
2017-08-09T01:19:37.140Z,15.87
2017-08-09T01:20:46.021Z,15.9
2017-08-09T01:21:55.275Z,16.02
2017-08-09T01:23:04.479Z,15.94
2017-08-09T01:24:13.686Z,16.01
2017-08-09T01:25:23.218Z,15.87
2017-08-09T01:26:33.400Z,15.83
2017-08-09T01:27:42.281Z,15.76
2017-08-09T01:28:51.164Z,15.69
2017-08-09T01:30:00.373Z,15.65
2017-08-09T01:31:09.262Z,15.64
2017-08-09T01:32:18.464Z,15.62
2017-08-09T01:33:27.826Z,15.62
2017-08-09T01:34:37.357Z,15.53
2017-08-09T01:35:46.891Z,15.53
2017-08-09T01:36:56.093Z,15.5
2017-08-09T01:38:05.621Z,15.49
2017-08-09T01:39:15.096Z,15.46
2017-08-09T01:40:24.948Z,15.43
2017-08-09T01:41:34.152Z,15.44
2017-08-09T01:42:43.033Z,15.38
2017-08-09T01:43:52.564Z,15.38
2017-08-09T01:45:02.574Z,15.39
2017-08-09T01:46:11.791Z,15.39
2017-08-09T01:47:21.644Z,15.43
2017-08-09T01:48:30.853Z,15.44
2017-08-09T01:49:40.059Z,15.38
2017-08-09T01:50:49.146Z,15.34
2017-08-09T01:51:58.363Z,15.28
2017-08-09T01:53:07.241Z,15.25
2017-08-09T01:54:16.125Z,15.32
2017-08-09T01:55:25.335Z,15.27
2017-08-09T01:56:34.536Z,15.32
2017-08-09T01:57:43.753Z,15.32
2017-08-09T01:58:52.961Z,15.27
2017-08-09T02:00:02.817Z,15.28
2017-08-09T02:01:12.669Z,15.31
2017-08-09T02:02:22.349Z,15.29
2017-08-09T02:03:31.881Z,15.2
2017-08-09T02:04:41.085Z,15.31
2017-08-09T02:05:50.615Z,15.27
2017-08-09T02:06:59.502Z,15.19
2017-08-09T02:08:08.861Z,15.17
2017-08-09T02:09:17.747Z,15.09
2017-08-09T02:10:27.279Z,15.09
2017-08-09T02:11:36.159Z,15.07
2017-08-09T02:12:45.693Z,15.11
2017-08-09T02:13:55.333Z,15.09
2017-08-09T02:15:04.536Z,15.13
2017-08-09T02:16:13.420Z,15.09
2017-08-09T02:17:22.950Z,15.13
2017-08-09T02:18:31.827Z,15.14
2017-08-09T02:19:41.455Z,15.01
2017-08-09T02:20:51.003Z,15.09
2017-08-09T02:22:00.852Z,15.1
2017-08-09T02:23:10.703Z,15.02
2017-08-09T02:24:19.920Z,15.06
2017-08-09T02:25:29.921Z,14.98
2017-08-09T02:26:38.804Z,14.95
2017-08-09T02:27:48.334Z,15.01
2017-08-09T02:28:57.876Z,14.92
2017-08-09T02:30:07.413Z,14.86
2017-08-09T02:31:16.399Z,14.89
2017-08-09T02:32:25.936Z,14.88
2017-08-09T02:33:35.465Z,14.86
2017-08-09T02:34:44.692Z,14.92
2017-08-09T02:35:54.226Z,14.92
2017-08-09T02:37:04.233Z,14.86
2017-08-09T02:38:13.117Z,14.88
2017-08-09T02:39:21.999Z,14.84
2017-08-09T02:40:31.540Z,14.86
2017-08-09T02:41:41.071Z,14.81
2017-08-09T02:42:51.078Z,14.83
2017-08-09T02:44:00.928Z,14.83
2017-08-09T02:45:11.105Z,14.84
2017-08-09T02:46:21.306Z,14.78
2017-08-09T02:47:30.833Z,14.83
2017-08-09T02:48:40.746Z,14.81
2017-08-09T02:49:50.283Z,14.69
2017-08-09T02:50:59.810Z,14.77
2017-08-09T02:52:09.357Z,14.8
2017-08-09T02:53:18.570Z,14.77
2017-08-09T02:54:28.849Z,14.65
2017-08-09T02:55:38.054Z,14.77
2017-08-09T02:56:47.267Z,14.81
2017-08-09T02:57:57.114Z,14.75
2017-08-09T02:59:06.638Z,14.84
2017-08-09T03:00:15.582Z,14.72
2017-08-09T03:01:25.107Z,14.72
2017-08-09T03:02:34.636Z,14.81
2017-08-09T03:03:43.848Z,14.77
2017-08-09T03:04:53.379Z,14.86
2017-08-09T03:06:03.290Z,14.69
2017-08-09T03:07:12.820Z,14.69
2017-08-09T03:08:22.701Z,14.73
2017-08-09T03:09:31.581Z,14.61
2017-08-09T03:10:40.460Z,14.62
2017-08-09T03:11:50.245Z,14.95
2017-08-09T03:13:00.118Z,14.8
2017-08-09T03:14:09.652Z,14.72
2017-08-09T03:15:18.536Z,14.62
2017-08-09T03:16:27.742Z,14.83
2017-08-09T03:17:37.005Z,14.77
2017-08-09T03:18:46.207Z,14.72
2017-08-09T03:19:55.737Z,14.61
2017-08-09T03:21:05.288Z,14.64
2017-08-09T03:22:14.816Z,14.62
2017-08-09T03:23:23.872Z,14.62
2017-08-09T03:24:33.726Z,14.62
2017-08-09T03:25:42.927Z,14.68
2017-08-09T03:26:52.799Z,14.55
2017-08-09T03:28:02.325Z,14.55
2017-08-09T03:29:11.355Z,14.64
2017-08-09T03:30:21.211Z,14.61
2017-08-09T03:31:30.753Z,14.57
2017-08-09T03:32:39.634Z,14.61
2017-08-09T03:33:48.840Z,14.62
2017-08-09T03:34:58.374Z,14.62
2017-08-09T03:36:08.237Z,14.64
2017-08-09T03:37:18.090Z,14.52
2017-08-09T03:38:27.305Z,14.51
2017-08-09T03:39:36.509Z,14.62
2017-08-09T03:40:46.134Z,14.58
2017-08-09T03:41:55.982Z,14.6
2017-08-09T03:43:05.531Z,14.54
2017-08-09T03:44:14.736Z,14.55
2017-08-09T03:45:24.264Z,14.52
2017-08-09T03:46:33.613Z,14.55
2017-08-09T03:47:42.823Z,14.54
2017-08-09T03:48:52.353Z,14.54
2017-08-09T03:50:02.211Z,14.62
2017-08-09T03:51:11.745Z,14.6
2017-08-09T03:52:21.249Z,14.58
2017-08-09T03:53:30.787Z,14.62
2017-08-09T03:54:39.996Z,14.55
2017-08-09T03:55:49.527Z,14.54
2017-08-09T03:56:59.062Z,14.6
2017-08-09T03:58:08.525Z,14.58
2017-08-09T03:59:17.408Z,14.55
2017-08-09T04:00:26.934Z,14.58
2017-08-09T04:01:37.109Z,14.54
2017-08-09T04:02:46.319Z,14.52
2017-08-09T04:03:56.318Z,14.57
2017-08-09T04:05:05.204Z,14.6
2017-08-09T04:06:14.734Z,14.57
2017-08-09T04:07:23.946Z,14.5
2017-08-09T04:08:33.153Z,14.61
2017-08-09T04:09:42.983Z,14.52
2017-08-09T04:10:51.863Z,14.54
2017-08-09T04:12:01.388Z,14.58
2017-08-09T04:13:10.918Z,14.61
2017-08-09T04:14:20.778Z,14.58
2017-08-09T04:15:30.135Z,14.6
2017-08-09T04:16:39.025Z,14.65
2017-08-09T04:17:48.554Z,14.57
2017-08-09T04:18:57.758Z,14.54
2017-08-09T04:20:06.962Z,14.65
2017-08-09T04:21:16.587Z,14.55
2017-08-09T04:22:26.116Z,14.55
2017-08-09T04:23:35.647Z,14.64
2017-08-09T04:24:44.858Z,14.62
2017-08-09T04:25:54.385Z,14.58
2017-08-09T04:27:04.020Z,14.57
2017-08-09T04:28:13.230Z,14.65
2017-08-09T04:29:22.436Z,14.69
2017-08-09T04:30:31.967Z,14.75
2017-08-09T04:31:41.496Z,14.72
2017-08-09T04:32:51.498Z,14.78
2017-08-09T04:34:00.393Z,14.6
2017-08-09T04:35:10.253Z,14.72
2017-08-09T04:36:19.785Z,14.7
2017-08-09T04:37:29.313Z,14.64
2017-08-09T04:38:38.295Z,14.77
2017-08-09T04:39:47.498Z,14.7
2017-08-09T04:40:56.383Z,14.77
2017-08-09T04:42:05.587Z,14.68
2017-08-09T04:43:14.798Z,14.7
2017-08-09T04:44:24.326Z,14.73
2017-08-09T04:45:34.497Z,14.77
2017-08-09T04:46:43.717Z,14.77
2017-08-09T04:47:52.599Z,14.81
2017-08-09T04:49:01.485Z,14.7
2017-08-09T04:50:11.065Z,14.8
2017-08-09T04:51:20.273Z,14.83
2017-08-09T04:52:29.804Z,14.81
2017-08-09T04:53:38.684Z,14.75
2017-08-09T04:54:47.889Z,14.8
2017-08-09T04:55:57.471Z,14.77
2017-08-09T04:57:07.007Z,14.77
2017-08-09T04:58:16.858Z,14.8
2017-08-09T04:59:25.744Z,14.65
2017-08-09T05:00:35.281Z,14.72
2017-08-09T05:01:44.958Z,14.65
2017-08-09T05:02:54.489Z,14.75
2017-08-09T05:04:03.696Z,14.78
2017-08-09T05:05:13.253Z,14.77
2017-08-09T05:06:22.780Z,14.81
2017-08-09T05:07:31.823Z,14.77
2017-08-09T05:08:41.037Z,14.77
2017-08-09T05:09:50.244Z,14.86
2017-08-09T05:10:59.451Z,14.92
2017-08-09T05:12:08.981Z,14.94
2017-08-09T05:13:17.917Z,15.01
2017-08-09T05:14:26.799Z,15.01
2017-08-09T05:15:36.006Z,14.98
2017-08-09T05:16:45.213Z,15.07
2017-08-09T05:17:54.420Z,15.1
2017-08-09T05:19:04.100Z,15.13
2017-08-09T05:20:13.306Z,15.1
2017-08-09T05:21:22.839Z,15.2
2017-08-09T05:22:32.693Z,15.21
2017-08-09T05:23:42.548Z,15.25
2017-08-09T05:24:51.528Z,15.28
2017-08-09T05:26:01.387Z,15.23
2017-08-09T05:27:10.603Z,15.29
2017-08-09T05:28:20.127Z,15.21
2017-08-09T05:29:29.984Z,15.29
2017-08-09T05:30:39.726Z,15.28
2017-08-09T05:31:48.614Z,15.27
2017-08-09T05:32:57.819Z,15.25
2017-08-09T05:34:07.033Z,15.29
2017-08-09T05:35:16.339Z,15.21
2017-08-09T05:36:26.191Z,15.27
2017-08-09T05:37:36.058Z,15.28
2017-08-09T05:38:45.268Z,15.21
2017-08-09T05:39:54.473Z,15.28
2017-08-09T05:41:03.692Z,15.27
2017-08-09T05:42:13.226Z,15.28
2017-08-09T05:43:22.111Z,15.21
2017-08-09T05:44:31.348Z,15.28
2017-08-09T05:45:40.557Z,15.28
2017-08-09T05:46:50.424Z,15.28
2017-08-09T05:48:00.275Z,15.27
2017-08-09T05:49:09.159Z,15.21
2017-08-09T05:50:18.371Z,15.23
2017-08-09T05:51:27.900Z,15.23
2017-08-09T05:52:36.785Z,15.25
2017-08-09T05:53:45.991Z,15.25
2017-08-09T05:54:55.844Z,15.28
2017-08-09T05:56:05.435Z,15.28
2017-08-09T05:57:14.645Z,15.41
2017-08-09T05:58:24.513Z,15.39
2017-08-09T05:59:33.815Z,15.43
2017-08-09T06:00:43.055Z,15.36
2017-08-09T06:01:52.691Z,15.46
2017-08-09T06:03:02.218Z,15.47
2017-08-09T06:04:11.789Z,15.51
2017-08-09T06:05:21.327Z,15.54
2017-08-09T06:06:30.922Z,15.6
2017-08-09T06:07:40.279Z,15.68
2017-08-09T06:08:50.137Z,15.71
2017-08-09T06:09:59.025Z,15.86
2017-08-09T06:11:08.559Z,15.87
2017-08-09T06:12:17.460Z,15.87
2017-08-09T06:13:26.969Z,15.92
2017-08-09T06:14:36.504Z,15.94
2017-08-09T06:15:45.709Z,15.94
2017-08-09T06:16:54.592Z,15.96
2017-08-09T06:18:04.127Z,16.02
2017-08-09T06:19:13.833Z,16
2017-08-09T06:20:23.042Z,16.05
2017-08-09T06:21:33.223Z,16.11
2017-08-09T06:22:42.438Z,16.08
2017-08-09T06:23:51.323Z,16.24
2017-08-09T06:25:01.010Z,16.14
2017-08-09T06:26:10.558Z,16.27
2017-08-09T06:27:20.415Z,16.25
2017-08-09T06:28:30.018Z,16.21
2017-08-09T06:29:39.228Z,16.23
2017-08-09T06:30:48.763Z,16.27
2017-08-09T06:31:58.614Z,16.27
2017-08-09T06:33:07.830Z,16.34
2017-08-09T06:34:17.706Z,16.33
2017-08-09T06:35:26.911Z,16.38
2017-08-09T06:36:36.273Z,16.42
2017-08-09T06:37:45.483Z,16.46
2017-08-09T06:38:54.692Z,16.46
2017-08-09T06:40:04.233Z,16.46
2017-08-09T06:41:14.088Z,16.46
2017-08-09T06:42:23.923Z,16.45
2017-08-09T06:43:33.777Z,16.56
2017-08-09T06:44:43.305Z,16.58
2017-08-09T06:45:52.517Z,16.5
2017-08-09T06:47:02.377Z,16.64
2017-08-09T06:48:12.752Z,16.68
2017-08-09T06:49:22.283Z,16.71
2017-08-09T06:50:32.157Z,16.7
2017-08-09T06:51:41.049Z,16.73
2017-08-09T06:52:50.273Z,16.85
2017-08-09T06:54:00.179Z,16.81
2017-08-09T06:55:10.043Z,16.79
2017-08-09T06:56:18.926Z,16.78
2017-08-09T06:57:28.137Z,16.89
2017-08-09T06:58:37.355Z,16.88
2017-08-09T06:59:46.993Z,16.85
2017-08-09T07:00:56.528Z,16.89
2017-08-09T07:02:05.426Z,16.93
2017-08-09T07:03:14.318Z,16.97
2017-08-09T07:04:23.615Z,16.96
2017-08-09T07:05:33.185Z,17
2017-08-09T07:06:42.307Z,16.98
2017-08-09T07:07:51.740Z,16.94
2017-08-09T07:09:01.107Z,16.98
2017-08-09T07:10:10.828Z,17.04
2017-08-09T07:11:21.057Z,17.01
2017-08-09T07:12:30.761Z,17.06
2017-08-09T07:13:40.173Z,17.14
2017-08-09T07:14:49.823Z,17.12
2017-08-09T07:15:59.471Z,17.11
2017-08-09T07:17:09.534Z,17.16
2017-08-09T07:18:18.423Z,17.18
2017-08-09T07:19:28.025Z,17.18
2017-08-09T07:20:37.267Z,17.26
2017-08-09T07:21:46.546Z,17.28
2017-08-09T07:22:56.194Z,17.44
2017-08-09T07:24:06.189Z,17.41
2017-08-09T07:25:15.495Z,17.54
2017-08-09T07:26:25.139Z,17.48
2017-08-09T07:27:34.723Z,17.54
2017-08-09T07:28:44.214Z,17.54
2017-08-09T07:29:53.653Z,17.63
2017-08-09T07:31:03.730Z,17.64
2017-08-09T07:32:13.364Z,17.62
2017-08-09T07:33:22.301Z,17.68
2017-08-09T07:34:32.119Z,17.62
2017-08-09T07:35:41.973Z,17.63
2017-08-09T07:36:52.092Z,17.63
2017-08-09T07:38:01.504Z,17.82
2017-08-09T07:39:10.876Z,17.84
2017-08-09T07:40:21.428Z,17.92
2017-08-09T07:41:30.802Z,17.86
2017-08-09T07:42:39.779Z,17.86
2017-08-09T07:43:49.098Z,17.89
2017-08-09T07:44:59.123Z,17.86
2017-08-09T07:46:09.446Z,17.86
2017-08-09T07:47:19.349Z,17.89
2017-08-09T07:48:28.568Z,17.92
2017-08-09T07:49:37.805Z,17.93
2017-08-09T07:50:47.018Z,17.99
2017-08-09T07:51:56.386Z,17.99
2017-08-09T07:53:05.941Z,18
2017-08-09T07:54:15.832Z,18.02
2017-08-09T07:55:26.078Z,18.03
2017-08-09T07:56:36.271Z,18.1
2017-08-09T07:57:45.631Z,18.17
2017-08-09T07:58:54.851Z,18.14
2017-08-09T08:00:04.720Z,18.14
2017-08-09T08:01:14.581Z,18.25
2017-08-09T08:02:23.795Z,18.18
2017-08-09T08:03:33.486Z,18.2
2017-08-09T08:04:42.705Z,18.27
2017-08-09T08:05:51.587Z,18.36
2017-08-09T08:07:00.804Z,18.32
2017-08-09T08:08:10.030Z,18.21
2017-08-09T08:09:19.758Z,18.42
2017-08-09T08:10:29.391Z,18.52
2017-08-09T08:11:38.673Z,18.51
2017-08-09T08:12:47.592Z,18.54
2017-08-09T08:13:56.846Z,18.51
2017-08-09T08:15:06.237Z,18.52
2017-08-09T08:16:15.872Z,18.58
2017-08-09T08:17:25.118Z,18.69
2017-08-09T08:18:34.331Z,18.57
2017-08-09T08:19:43.864Z,18.65
2017-08-09T08:20:53.378Z,18.69
2017-08-09T08:22:02.910Z,18.66
2017-08-09T08:23:12.483Z,18.76
2017-08-09T08:24:22.042Z,18.8
2017-08-09T08:25:31.252Z,18.88
2017-08-09T08:26:40.568Z,18.84
2017-08-09T08:27:49.467Z,18.81
2017-08-09T08:28:59.006Z,18.81
2017-08-09T08:30:08.917Z,18.82
2017-08-09T08:31:18.801Z,18.9
2017-08-09T08:32:28.094Z,18.82
2017-08-09T08:33:37.366Z,18.8
2017-08-09T08:34:46.250Z,18.8
2017-08-09T08:35:55.791Z,18.78
2017-08-09T08:37:05.321Z,18.84
2017-08-09T08:38:14.916Z,18.82
2017-08-09T08:39:24.797Z,18.8
2017-08-09T08:40:34.346Z,18.85
2017-08-09T08:41:43.996Z,18.8
2017-08-09T08:42:53.557Z,18.78
2017-08-09T08:44:03.801Z,18.69
2017-08-09T08:45:13.434Z,18.75
2017-08-09T08:46:23.026Z,18.72
2017-08-09T08:47:32.295Z,18.75
2017-08-09T08:48:41.860Z,18.73
2017-08-09T08:49:51.455Z,18.65
2017-08-09T08:51:01.325Z,18.7
2017-08-09T08:52:11.214Z,18.82
2017-08-09T08:53:20.482Z,18.82
2017-08-09T08:54:29.384Z,18.88
2017-08-09T08:55:39.123Z,18.99
2017-08-09T08:56:48.347Z,18.92
2017-08-09T08:57:57.886Z,19.07
2017-08-09T08:59:07.100Z,19.04
2017-08-09T09:00:16.325Z,19.06
2017-08-09T09:01:26.066Z,18.98
2017-08-09T09:02:35.320Z,19.08
2017-08-09T09:03:44.856Z,18.94
2017-08-09T09:04:53.791Z,18.99
2017-08-09T09:06:03.391Z,18.94
2017-08-09T09:07:12.903Z,18.98
2017-08-09T09:08:22.495Z,19.07
2017-08-09T09:09:31.826Z,19.11
2017-08-09T09:10:41.813Z,19.08
2017-08-09T09:11:51.467Z,19.11
2017-08-09T09:13:01.193Z,18.95
2017-08-09T09:14:11.128Z,18.98
2017-08-09T09:15:21.072Z,18.94
2017-08-09T09:16:30.621Z,18.95
2017-08-09T09:17:40.176Z,18.82
2017-08-09T09:18:49.813Z,18.8
2017-08-09T09:19:59.021Z,18.82
2017-08-09T09:21:08.939Z,18.75
2017-08-09T09:22:18.486Z,18.66
2017-08-09T09:23:28.170Z,18.69
2017-08-09T09:24:37.865Z,18.69
2017-08-09T09:25:47.100Z,18.7
2017-08-09T09:26:56.632Z,18.66
2017-08-09T09:28:06.490Z,18.72
2017-08-09T09:29:15.376Z,18.78
2017-08-09T09:30:24.644Z,18.81
2017-08-09T09:31:33.852Z,18.76
2017-08-09T09:32:42.738Z,18.76
2017-08-09T09:33:52.275Z,18.84
2017-08-09T09:35:01.832Z,18.81
2017-08-09T09:36:11.204Z,18.81
2017-08-09T09:37:20.412Z,18.73
2017-08-09T09:38:29.623Z,18.8
2017-08-09T09:39:38.854Z,18.76
2017-08-09T09:40:48.390Z,18.84
2017-08-09T09:41:58.221Z,18.84
2017-08-09T09:43:07.449Z,18.84
2017-08-09T09:44:16.661Z,18.95
2017-08-09T09:45:26.194Z,18.98
2017-08-09T09:46:36.068Z,18.99
2017-08-09T09:47:45.651Z,18.94
2017-08-09T09:48:55.188Z,18.92
2017-08-09T09:50:04.724Z,19.08
2017-08-09T09:51:14.256Z,19.13
2017-08-09T09:52:23.475Z,19.25
2017-08-09T09:53:32.418Z,19.25
2017-08-09T09:54:42.270Z,19.37
2017-08-09T09:55:51.157Z,19.39
2017-08-09T09:57:00.710Z,19.37
2017-08-09T09:58:10.259Z,19.41
2017-08-09T09:59:19.306Z,19.43
2017-08-09T10:00:28.874Z,19.54
2017-08-09T10:01:38.091Z,19.68
2017-08-09T10:02:47.327Z,19.8
2017-08-09T10:03:56.857Z,19.88
2017-08-09T10:05:06.226Z,19.88
2017-08-09T10:06:15.764Z,19.94
2017-08-09T10:07:24.974Z,19.95
2017-08-09T10:08:34.514Z,19.88
2017-08-09T10:09:43.728Z,19.87
2017-08-09T10:10:53.362Z,19.87
2017-08-09T10:12:03.219Z,19.83
2017-08-09T10:13:12.757Z,19.83
2017-08-09T10:14:22.298Z,19.8
2017-08-09T10:15:31.509Z,19.74
2017-08-09T10:16:40.924Z,19.66
2017-08-09T10:17:50.474Z,19.58
2017-08-09T10:19:00.006Z,19.68
2017-08-09T10:20:09.217Z,19.59
2017-08-09T10:21:18.754Z,19.68
2017-08-09T10:22:28.503Z,19.74
2017-08-09T10:23:38.037Z,19.84
2017-08-09T10:24:47.578Z,19.86
2017-08-09T10:25:57.146Z,19.92
2017-08-09T10:27:06.375Z,19.95
2017-08-09T10:28:15.310Z,19.91
2017-08-09T10:29:25.495Z,19.96
2017-08-09T10:30:34.709Z,19.84
2017-08-09T10:31:43.612Z,19.92
2017-08-09T10:32:53.158Z,19.96
2017-08-09T10:34:02.196Z,20.1
2017-08-09T10:35:12.079Z,20.1
2017-08-09T10:36:20.967Z,20.06
2017-08-09T10:37:29.858Z,20.06
2017-08-09T10:38:39.072Z,20.16
2017-08-09T10:39:49.081Z,20.17
2017-08-09T10:40:58.625Z,20.2
2017-08-09T10:42:08.482Z,20.21
2017-08-09T10:43:18.023Z,20.17
2017-08-09T10:44:27.230Z,20.17
2017-08-09T10:45:36.503Z,20.2
2017-08-09T10:46:46.039Z,20.29
2017-08-09T10:47:54.924Z,20.18
2017-08-09T10:49:03.822Z,20.32
2017-08-09T10:50:13.359Z,20.31
2017-08-09T10:51:22.947Z,20.38
2017-08-09T10:52:32.483Z,20.5
2017-08-09T10:53:42.340Z,20.54
2017-08-09T10:54:52.200Z,20.52
2017-08-09T10:56:01.417Z,20.59
2017-08-09T10:57:11.400Z,20.57
2017-08-09T10:58:20.936Z,20.61
2017-08-09T10:59:30.156Z,20.55
2017-08-09T11:00:39.368Z,20.67
2017-08-09T11:01:49.225Z,20.59
2017-08-09T11:02:59.243Z,20.54
2017-08-09T11:04:08.774Z,20.43
2017-08-09T11:05:18.316Z,20.36
2017-08-09T11:06:27.852Z,20.33
2017-08-09T11:07:37.071Z,20.33
2017-08-09T11:08:47.024Z,20.31
2017-08-09T11:09:56.254Z,20.32
2017-08-09T11:11:05.462Z,20.36
2017-08-09T11:12:14.680Z,20.31
2017-08-09T11:13:24.222Z,20.35
2017-08-09T11:14:33.952Z,20.35
2017-08-09T11:15:43.164Z,20.31
2017-08-09T11:16:52.697Z,20.32
2017-08-09T11:18:01.584Z,20.33
2017-08-09T11:19:10.477Z,20.32
2017-08-09T11:20:19.512Z,20.2
2017-08-09T11:21:28.398Z,20.24
2017-08-09T11:22:37.936Z,20.21
2017-08-09T11:23:47.471Z,20.33
2017-08-09T11:24:57.329Z,20.35
2017-08-09T11:26:06.966Z,20.33
2017-08-09T11:27:15.857Z,20.32
2017-08-09T11:28:25.070Z,20.32
2017-08-09T11:29:34.610Z,20.39
2017-08-09T11:30:43.836Z,20.51
2017-08-09T11:31:53.093Z,20.5
2017-08-09T11:33:02.626Z,20.54
2017-08-09T11:34:11.529Z,20.48
2017-08-09T11:35:20.739Z,20.54
2017-08-09T11:36:30.607Z,20.61
2017-08-09T11:37:39.653Z,20.51
2017-08-09T11:38:48.546Z,20.54
2017-08-09T11:39:58.081Z,20.48
2017-08-09T11:41:07.614Z,20.57
2017-08-09T11:42:17.149Z,20.59
2017-08-09T11:43:26.358Z,20.58
2017-08-09T11:44:35.575Z,20.66
2017-08-09T11:45:44.465Z,20.69
2017-08-09T11:46:53.997Z,20.67
2017-08-09T11:48:02.892Z,20.7
2017-08-09T11:49:11.781Z,20.73
2017-08-09T11:50:21.320Z,20.66
2017-08-09T11:51:30.537Z,20.73
2017-08-09T11:52:39.753Z,20.73
2017-08-09T11:53:49.953Z,20.73
2017-08-09T11:55:00.061Z,20.77
2017-08-09T11:56:09.600Z,20.76
2017-08-09T11:57:19.134Z,20.88
2017-08-09T11:58:28.024Z,20.87
2017-08-09T11:59:37.243Z,20.99
2017-08-09T12:00:46.557Z,20.97
2017-08-09T12:01:56.419Z,21.1
2017-08-09T12:03:06.297Z,21.06
2017-08-09T12:04:16.153Z,21.14
2017-08-09T12:05:25.370Z,21.24
2017-08-09T12:06:34.582Z,21.31
2017-08-09T12:07:44.134Z,21.34
2017-08-09T12:08:53.350Z,21.29
2017-08-09T12:10:02.614Z,21.35
2017-08-09T12:11:12.149Z,21.43
2017-08-09T12:12:21.414Z,21.4
2017-08-09T12:13:30.953Z,21.46
2017-08-09T12:14:40.490Z,21.38
2017-08-09T12:15:50.031Z,21.5
2017-08-09T12:16:59.890Z,21.47
2017-08-09T12:18:09.507Z,21.52
2017-08-09T12:19:19.372Z,21.64
2017-08-09T12:20:29.242Z,21.62
2017-08-09T12:21:38.136Z,21.72
2017-08-09T12:22:48.003Z,21.74
2017-08-09T12:23:57.741Z,21.79
2017-08-09T12:25:07.605Z,21.79
2017-08-09T12:26:17.151Z,21.88
2017-08-09T12:27:27.036Z,21.86
2017-08-09T12:28:36.904Z,21.77
2017-08-09T12:29:46.450Z,21.77
2017-08-09T12:30:56.314Z,21.82
2017-08-09T12:32:05.857Z,21.9
2017-08-09T12:33:15.393Z,21.75
2017-08-09T12:34:25.259Z,21.82
2017-08-09T12:35:35.173Z,21.75
2017-08-09T12:36:44.715Z,21.8
2017-08-09T12:37:53.928Z,21.74
2017-08-09T12:39:03.791Z,21.82
2017-08-09T12:40:13.976Z,21.96
2017-08-09T12:41:23.669Z,22
2017-08-09T12:42:33.539Z,21.96
2017-08-09T12:43:43.091Z,22.06
2017-08-09T12:44:52.632Z,22.17
2017-08-09T12:46:02.495Z,22.22
2017-08-09T12:47:12.457Z,22.35
2017-08-09T12:48:22.069Z,22.35
2017-08-09T12:49:31.284Z,22.43
2017-08-09T12:50:40.863Z,22.47
2017-08-09T12:51:50.081Z,22.58
2017-08-09T12:52:59.038Z,22.62
2017-08-09T12:54:08.580Z,22.58
2017-08-09T12:55:17.803Z,22.72
2017-08-09T12:56:27.666Z,22.6
2017-08-09T12:57:36.914Z,22.85
2017-08-09T12:58:46.617Z,22.97
2017-08-09T12:59:55.835Z,23.02
2017-08-09T13:01:05.072Z,23.15
2017-08-09T13:02:14.321Z,23.38
2017-08-09T13:03:24.192Z,23.32
2017-08-09T13:04:33.356Z,23.36
2017-08-09T13:05:42.598Z,23.32
2017-08-09T13:06:51.841Z,23.42
2017-08-09T13:08:01.404Z,23.4
2017-08-09T13:09:10.988Z,23.33
2017-08-09T13:10:21.156Z,23.38
2017-08-09T13:11:30.703Z,23.33
2017-08-09T13:12:39.608Z,23.19
2017-08-09T13:13:48.832Z,23.27
2017-08-09T13:14:57.944Z,23.07
2017-08-09T13:16:07.243Z,23.12
2017-08-09T13:17:16.829Z,22.97
2017-08-09T13:18:26.068Z,22.85
2017-08-09T13:19:35.763Z,22.86
2017-08-09T13:20:45.032Z,23.01
2017-08-09T13:22:24.324Z,22.91
2017-08-09T13:23:33.569Z,22.97
2017-08-09T13:24:42.873Z,22.95
2017-08-09T13:25:52.446Z,23.1
2017-08-09T13:27:01.669Z,23.38
2017-08-09T13:28:11.219Z,23.5
2017-08-09T13:29:20.777Z,23.78
2017-08-09T13:30:30.024Z,23.8
2017-08-09T13:31:38.924Z,23.94
2017-08-09T13:32:49.122Z,24
2017-08-09T13:33:58.346Z,24.12
2017-08-09T13:35:08.276Z,24.03
2017-08-09T13:36:17.501Z,23.9
2017-08-09T13:37:27.223Z,23.94
2017-08-09T13:38:36.444Z,23.93
2017-08-09T13:39:45.348Z,23.9
2017-08-09T13:40:54.576Z,23.97
2017-08-09T13:42:04.121Z,23.95
2017-08-09T13:43:14.023Z,24
2017-08-09T13:44:23.567Z,23.91
2017-08-09T13:45:33.436Z,23.97
2017-08-09T13:46:42.651Z,23.93
2017-08-09T13:47:51.549Z,23.94
2017-08-09T13:49:00.770Z,23.85
2017-08-09T13:50:10.343Z,23.83
2017-08-09T13:51:19.904Z,23.78
2017-08-09T13:52:29.492Z,23.72
2017-08-09T13:53:38.830Z,23.72
2017-08-09T13:54:47.733Z,23.8
2017-08-09T13:55:56.955Z,23.94
2017-08-09T13:57:06.500Z,24.03
2017-08-09T13:58:16.840Z,24.03
2017-08-09T13:59:25.736Z,24.03
2017-08-09T14:00:35.285Z,24.05
2017-08-09T14:01:44.186Z,24.05
2017-08-09T14:02:53.442Z,24.15
2017-08-09T14:04:03.195Z,23.97
2017-08-09T14:05:12.415Z,23.94
2017-08-09T14:06:21.647Z,23.94
2017-08-09T14:07:30.595Z,24.05
2017-08-09T14:08:40.149Z,24.03
2017-08-09T14:09:49.569Z,23.93
2017-08-09T14:10:59.435Z,24.02
2017-08-09T14:12:08.973Z,23.95
2017-08-09T14:13:18.193Z,24.15
2017-08-09T14:14:27.411Z,24.4
2017-08-09T14:15:37.103Z,24.47
2017-08-09T14:16:46.001Z,24.71
2017-08-09T14:17:54.905Z,24.76
2017-08-09T14:19:04.789Z,25
2017-08-09T14:20:14.363Z,24.91
2017-08-09T14:21:23.796Z,24.88
2017-08-09T14:22:33.661Z,24.96
2017-08-09T14:23:42.884Z,25.15
2017-08-09T14:24:52.762Z,25.23
2017-08-09T14:26:02.307Z,25.36
2017-08-09T14:27:11.359Z,25.55
2017-08-09T14:28:20.908Z,25.67
2017-08-09T14:29:30.474Z,25.79
2017-08-09T14:30:40.041Z,25.98
2017-08-09T14:31:48.942Z,26.01
2017-08-09T14:32:58.320Z,26.21
2017-08-09T14:34:08.191Z,26.4
2017-08-09T14:35:17.096Z,26.48
2017-08-09T14:36:26.649Z,26.45
2017-08-09T14:37:35.875Z,26.54
2017-08-09T14:38:45.812Z,26.4
2017-08-09T14:39:54.709Z,26.35
2017-08-09T14:41:04.260Z,26.23
2017-08-09T14:42:14.129Z,26.28
2017-08-09T14:43:23.035Z,26.4
2017-08-09T14:44:32.339Z,26.47
2017-08-09T14:45:41.623Z,26.47
2017-08-09T14:46:50.904Z,26.65
2017-08-09T14:48:00.394Z,26.7
2017-08-09T14:49:10.302Z,26.8
2017-08-09T14:50:19.730Z,26.97
2017-08-09T14:51:29.340Z,27.12
2017-08-09T14:52:38.834Z,27.19
2017-08-09T14:53:48.061Z,27.47
2017-08-09T14:54:57.291Z,27.41
2017-08-09T14:56:07.833Z,27.27
2017-08-09T14:57:17.387Z,27.29
2017-08-09T14:58:26.612Z,26.91